aviador You're here:

KDYA Decoded Metar

in
Report Time2017-12-17 00:15:00
UTC Time2017-12-17 00:28:55
Flight Rules vfr VFR
WindCalm
Visibility9999 m
Phenomena:N/A
Clouds:N/A
Expected CloudBase > 1,600 ft AGL from Temp-Dew spread
CeilingNone
Temp05°C
Dew Point01°C (76% RH)
AAT3.2°C
QNH1024 hPa
Raw Report
METAR KDYA 170015Z AUTO 00000KT 10SM 05/01 A3025 RMK AO2 T00510010=

Extra information for KDYA:More info

Social comments